sensor_id;sensor_type;location;lat;lon;timestamp;P1;durP1;ratioP1;P2;durP2;ratioP2
10469;SDS011;5282;47.052;15.458;2024-03-29T00:00:39;1.50;;;1.50;;
10469;SDS011;5282;47.052;15.458;2024-03-29T00:03:09;1.57;;;1.47;;
10469;SDS011;5282;47.052;15.458;2024-03-29T00:05:36;1.50;;;1.50;;
10469;SDS011;5282;47.052;15.458;2024-03-29T00:08:03;1.60;;;1.50;;
10469;SDS011;5282;47.052;15.458;2024-03-29T00:10:29;2.00;;;1.50;;
10469;SDS011;5282;47.052;15.458;2024-03-29T00:12:57;1.60;;;1.60;;
10469;SDS011;5282;47.052;15.458;2024-03-29T00:15:23;1.60;;;1.60;;
10469;SDS011;5282;47.052;15.458;2024-03-29T00:17:49;1.17;;;1.17;;
10469;SDS011;5282;47.052;15.458;2024-03-29T00:20:15;1.40;;;1.30;;
10469;SDS011;5282;47.052;15.458;2024-03-29T00:22:41;1.43;;;1.43;;
10469;SDS011;5282;47.052;15.458;2024-03-29T00:25:08;1.67;;;1.53;;
10469;SDS011;5282;47.052;15.458;2024-03-29T00:27:34;1.70;;;1.60;;
10469;SDS011;5282;47.052;15.458;2024-03-29T00:30:02;1.40;;;1.40;;
10469;SDS011;5282;47.052;15.458;2024-03-29T00:32:29;1.20;;;1.20;;
10469;SDS011;5282;47.052;15.458;2024-03-29T00:34:55;1.30;;;1.30;;
10469;SDS011;5282;47.052;15.458;2024-03-29T00:37:21;1.50;;;1.40;;
10469;SDS011;5282;47.052;15.458;2024-03-29T00:39:49;1.47;;;1.37;;
10469;SDS011;5282;47.052;15.458;2024-03-29T00:42:16;1.30;;;1.30;;
10469;SDS011;5282;47.052;15.458;2024-03-29T00:44:42;1.70;;;1.60;;
10469;SDS011;5282;47.052;15.458;2024-03-29T00:47:10;1.90;;;1.80;;
10469;SDS011;5282;47.052;15.458;2024-03-29T00:49:36;1.20;;;1.20;;
10469;SDS011;5282;47.052;15.458;2024-03-29T00:52:02;1.17;;;1.17;;
10469;SDS011;5282;47.052;15.458;2024-03-29T00:54:29;1.57;;;1.50;;
10469;SDS011;5282;47.052;15.458;2024-03-29T00:56:55;1.60;;;1.57;;
10469;SDS011;5282;47.052;15.458;2024-03-29T00:59:21;1.70;;;1.60;;
10469;SDS011;5282;47.052;15.458;2024-03-29T01:01:48;1.50;;;1.50;;
10469;SDS011;5282;47.052;15.458;2024-03-29T01:04:16;1.30;;;1.30;;
10469;SDS011;5282;47.052;15.458;2024-03-29T01:06:42;1.43;;;1.33;;
10469;SDS011;5282;47.052;15.458;2024-03-29T01:09:10;1.17;;;1.17;;
10469;SDS011;5282;47.052;15.458;2024-03-29T01:11:36;1.50;;;1.50;;
10469;SDS011;5282;47.052;15.458;2024-03-29T01:14:02;1.43;;;1.43;;
10469;SDS011;5282;47.052;15.458;2024-03-29T01:16:29;1.10;;;1.10;;
10469;SDS011;5282;47.052;15.458;2024-03-29T01:18:55;1.30;;;1.30;;
10469;SDS011;5282;47.052;15.458;2024-03-29T01:21:23;1.30;;;1.30;;
10469;SDS011;5282;47.052;15.458;2024-03-29T01:23:49;1.20;;;1.20;;
10469;SDS011;5282;47.052;15.458;2024-03-29T01:26:15;1.37;;;1.37;;
10469;SDS011;5282;47.052;15.458;2024-03-29T01:28:44;1.60;;;1.50;;
10469;SDS011;5282;47.052;15.458;2024-03-29T01:31:11;1.67;;;1.60;;
10469;SDS011;5282;47.052;15.458;2024-03-29T01:33:37;1.27;;;1.27;;
10469;SDS011;5282;47.052;15.458;2024-03-29T01:36:05;1.33;;;1.33;;
10469;SDS011;5282;47.052;15.458;2024-03-29T01:38:32;1.70;;;1.60;;
10469;SDS011;5282;47.052;15.458;2024-03-29T01:40:59;1.77;;;1.43;;
10469;SDS011;5282;47.052;15.458;2024-03-29T01:43:25;1.50;;;1.47;;
10469;SDS011;5282;47.052;15.458;2024-03-29T01:45:53;1.60;;;1.60;;
10469;SDS011;5282;47.052;15.458;2024-03-29T01:48:21;1.50;;;1.50;;
10469;SDS011;5282;47.052;15.458;2024-03-29T01:50:50;2.00;;;1.90;;
10469;SDS011;5282;47.052;15.458;2024-03-29T01:53:19;1.70;;;1.70;;
10469;SDS011;5282;47.052;15.458;2024-03-29T01:55:48;1.53;;;1.53;;
10469;SDS011;5282;47.052;15.458;2024-03-29T01:58:15;1.80;;;1.73;;
10469;SDS011;5282;47.052;15.458;2024-03-29T02:00:48;1.90;;;1.90;;
10469;SDS011;5282;47.052;15.458;2024-03-29T02:03:20;2.30;;;1.90;;
10469;SDS011;5282;47.052;15.458;2024-03-29T02:05:48;1.60;;;1.50;;
10469;SDS011;5282;47.052;15.458;2024-03-29T02:08:15;1.70;;;1.70;;
10469;SDS011;5282;47.052;15.458;2024-03-29T02:10:43;1.43;;;1.43;;
10469;SDS011;5282;47.052;15.458;2024-03-29T02:13:13;1.80;;;1.70;;
10469;SDS011;5282;47.052;15.458;2024-03-29T02:15:41;1.37;;;1.37;;
10469;SDS011;5282;47.052;15.458;2024-03-29T02:18:08;1.87;;;1.70;;
10469;SDS011;5282;47.052;15.458;2024-03-29T02:20:35;1.50;;;1.50;;
10469;SDS011;5282;47.052;15.458;2024-03-29T02:23:05;1.60;;;1.60;;
10469;SDS011;5282;47.052;15.458;2024-03-29T02:25:37;1.60;;;1.60;;
10469;SDS011;5282;47.052;15.458;2024-03-29T02:28:05;1.70;;;1.70;;
10469;SDS011;5282;47.052;15.458;2024-03-29T02:30:35;1.60;;;1.60;;
10469;SDS011;5282;47.052;15.458;2024-03-29T02:33:02;1.60;;;1.60;;
10469;SDS011;5282;47.052;15.458;2024-03-29T02:35:29;1.10;;;1.10;;
10469;SDS011;5282;47.052;15.458;2024-03-29T02:37:56;1.43;;;1.40;;
10469;SDS011;5282;47.052;15.458;2024-03-29T02:40:23;1.13;;;1.13;;
10469;SDS011;5282;47.052;15.458;2024-03-29T02:42:51;1.33;;;1.33;;
10469;SDS011;5282;47.052;15.458;2024-03-29T02:45:18;1.10;;;1.10;;
10469;SDS011;5282;47.052;15.458;2024-03-29T02:47:44;1.40;;;1.37;;
10469;SDS011;5282;47.052;15.458;2024-03-29T02:50:12;2.00;;;1.20;;
10469;SDS011;5282;47.052;15.458;2024-03-29T02:52:39;1.03;;;1.03;;
10469;SDS011;5282;47.052;15.458;2024-03-29T02:55:06;1.10;;;1.10;;
10469;SDS011;5282;47.052;15.458;2024-03-29T02:57:32;1.30;;;1.30;;
10469;SDS011;5282;47.052;15.458;2024-03-29T03:00:01;1.30;;;1.20;;
10469;SDS011;5282;47.052;15.458;2024-03-29T03:02:28;1.40;;;1.40;;
10469;SDS011;5282;47.052;15.458;2024-03-29T03:04:55;1.10;;;1.10;;
10469;SDS011;5282;47.052;15.458;2024-03-29T03:07:21;1.27;;;1.27;;
10469;SDS011;5282;47.052;15.458;2024-03-29T03:10:05;1.50;;;1.50;;
10469;SDS011;5282;47.052;15.458;2024-03-29T03:12:51;1.50;;;1.30;;
10469;SDS011;5282;47.052;15.458;2024-03-29T03:15:20;1.40;;;1.40;;
10469;SDS011;5282;47.052;15.458;2024-03-29T03:17:48;1.33;;;1.33;;
10469;SDS011;5282;47.052;15.458;2024-03-29T03:20:18;1.33;;;1.30;;
10469;SDS011;5282;47.052;15.458;2024-03-29T03:22:47;1.33;;;1.33;;
10469;SDS011;5282;47.052;15.458;2024-03-29T03:25:15;1.07;;;1.07;;
10469;SDS011;5282;47.052;15.458;2024-03-29T03:27:42;1.20;;;1.20;;
10469;SDS011;5282;47.052;15.458;2024-03-29T03:30:12;2.03;;;1.37;;
10469;SDS011;5282;47.052;15.458;2024-03-29T03:32:43;1.30;;;1.30;;
10469;SDS011;5282;47.052;15.458;2024-03-29T03:35:10;1.20;;;1.20;;
10469;SDS011;5282;47.052;15.458;2024-03-29T03:37:36;1.97;;;1.30;;
10469;SDS011;5282;47.052;15.458;2024-03-29T03:40:04;1.30;;;1.20;;
10469;SDS011;5282;47.052;15.458;2024-03-29T03:42:31;1.70;;;1.20;;
10469;SDS011;5282;47.052;15.458;2024-03-29T03:45:01;1.53;;;1.40;;
10469;SDS011;5282;47.052;15.458;2024-03-29T03:47:29;1.30;;;1.30;;
10469;SDS011;5282;47.052;15.458;2024-03-29T03:49:57;1.30;;;1.30;;
10469;SDS011;5282;47.052;15.458;2024-03-29T03:52:23;1.10;;;1.10;;
10469;SDS011;5282;47.052;15.458;2024-03-29T03:54:50;1.30;;;1.20;;
10469;SDS011;5282;47.052;15.458;2024-03-29T03:57:16;1.10;;;1.10;;
10469;SDS011;5282;47.052;15.458;2024-03-29T03:59:43;1.00;;;1.00;;
10469;SDS011;5282;47.052;15.458;2024-03-29T04:02:09;1.20;;;1.20;;
10469;SDS011;5282;47.052;15.458;2024-03-29T04:04:39;0.90;;;0.90;;
10469;SDS011;5282;47.052;15.458;2024-03-29T04:07:16;1.17;;;1.17;;
10469;SDS011;5282;47.052;15.458;2024-03-29T04:09:52;1.03;;;1.03;;
10469;SDS011;5282;47.052;15.458;2024-03-29T04:12:23;1.03;;;1.00;;
10469;SDS011;5282;47.052;15.458;2024-03-29T04:14:56;1.00;;;1.00;;
10469;SDS011;5282;47.052;15.458;2024-03-29T04:17:25;1.40;;;1.40;;
10469;SDS011;5282;47.052;15.458;2024-03-29T04:19:58;1.97;;;1.10;;
10469;SDS011;5282;47.052;15.458;2024-03-29T04:22:27;1.00;;;1.00;;
10469;SDS011;5282;47.052;15.458;2024-03-29T04:24:55;0.97;;;0.90;;
10469;SDS011;5282;47.052;15.458;2024-03-29T04:27:33;1.10;;;1.10;;
10469;SDS011;5282;47.052;15.458;2024-03-29T04:30:03;1.17;;;1.17;;
10469;SDS011;5282;47.052;15.458;2024-03-29T04:32:34;1.20;;;1.20;;
10469;SDS011;5282;47.052;15.458;2024-03-29T04:35:01;1.20;;;1.20;;
10469;SDS011;5282;47.052;15.458;2024-03-29T04:37:30;1.10;;;1.10;;
10469;SDS011;5282;47.052;15.458;2024-03-29T04:39:58;1.30;;;1.30;;
10469;SDS011;5282;47.052;15.458;2024-03-29T04:42:27;1.23;;;1.23;;
10469;SDS011;5282;47.052;15.458;2024-03-29T04:44:54;1.03;;;1.03;;
10469;SDS011;5282;47.052;15.458;2024-03-29T04:47:21;1.10;;;1.10;;
10469;SDS011;5282;47.052;15.458;2024-03-29T04:49:48;1.10;;;1.00;;
10469;SDS011;5282;47.052;15.458;2024-03-29T04:52:22;1.30;;;1.30;;
10469;SDS011;5282;47.052;15.458;2024-03-29T04:54:52;1.17;;;1.17;;
10469;SDS011;5282;47.052;15.458;2024-03-29T04:57:19;1.17;;;1.17;;
10469;SDS011;5282;47.052;15.458;2024-03-29T04:59:50;1.23;;;1.13;;
10469;SDS011;5282;47.052;15.458;2024-03-29T05:02:17;1.20;;;1.20;;
10469;SDS011;5282;47.052;15.458;2024-03-29T05:04:44;1.23;;;1.00;;
10469;SDS011;5282;47.052;15.458;2024-03-29T05:07:11;1.67;;;1.17;;
10469;SDS011;5282;47.052;15.458;2024-03-29T05:09:42;1.93;;;1.83;;
10469;SDS011;5282;47.052;15.458;2024-03-29T05:12:11;1.53;;;1.53;;
10469;SDS011;5282;47.052;15.458;2024-03-29T05:14:38;1.50;;;1.50;;
10469;SDS011;5282;47.052;15.458;2024-03-29T05:17:05;2.87;;;1.33;;
10469;SDS011;5282;47.052;15.458;2024-03-29T05:19:32;1.60;;;1.50;;
10469;SDS011;5282;47.052;15.458;2024-03-29T05:21:59;2.30;;;1.40;;
10469;SDS011;5282;47.052;15.458;2024-03-29T05:24:27;1.50;;;1.40;;
10469;SDS011;5282;47.052;15.458;2024-03-29T05:26:54;1.47;;;1.37;;
10469;SDS011;5282;47.052;15.458;2024-03-29T05:29:23;2.30;;;1.30;;
10469;SDS011;5282;47.052;15.458;2024-03-29T05:31:50;3.10;;;1.20;;
10469;SDS011;5282;47.052;15.458;2024-03-29T05:34:17;1.13;;;1.13;;
10469;SDS011;5282;47.052;15.458;2024-03-29T05:36:44;1.10;;;1.10;;
10469;SDS011;5282;47.052;15.458;2024-03-29T05:39:11;0.93;;;0.93;;
10469;SDS011;5282;47.052;15.458;2024-03-29T05:41:38;1.30;;;1.30;;
10469;SDS011;5282;47.052;15.458;2024-03-29T05:44:05;1.57;;;1.30;;
10469;SDS011;5282;47.052;15.458;2024-03-29T05:46:36;1.30;;;1.30;;
10469;SDS011;5282;47.052;15.458;2024-03-29T05:49:04;1.50;;;1.10;;
10469;SDS011;5282;47.052;15.458;2024-03-29T05:51:31;1.03;;;1.03;;
10469;SDS011;5282;47.052;15.458;2024-03-29T05:53:59;1.40;;;1.00;;
10469;SDS011;5282;47.052;15.458;2024-03-29T05:56:28;2.23;;;1.33;;
10469;SDS011;5282;47.052;15.458;2024-03-29T05:58:55;1.80;;;1.30;;
10469;SDS011;5282;47.052;15.458;2024-03-29T06:01:22;2.27;;;1.23;;
10469;SDS011;5282;47.052;15.458;2024-03-29T06:03:50;1.40;;;1.30;;
10469;SDS011;5282;47.052;15.458;2024-03-29T06:06:18;1.00;;;1.00;;
10469;SDS011;5282;47.052;15.458;2024-03-29T06:08:49;1.53;;;1.43;;
10469;SDS011;5282;47.052;15.458;2024-03-29T06:11:16;1.37;;;1.27;;
10469;SDS011;5282;47.052;15.458;2024-03-29T06:13:43;0.93;;;0.93;;
10469;SDS011;5282;47.052;15.458;2024-03-29T06:16:28;1.20;;;1.20;;
10469;SDS011;5282;47.052;15.458;2024-03-29T06:19:14;1.00;;;1.00;;
10469;SDS011;5282;47.052;15.458;2024-03-29T06:21:41;1.00;;;1.00;;
10469;SDS011;5282;47.052;15.458;2024-03-29T06:24:09;2.00;;;1.20;;
10469;SDS011;5282;47.052;15.458;2024-03-29T06:26:37;1.60;;;1.50;;
10469;SDS011;5282;47.052;15.458;2024-03-29T06:29:05;1.83;;;1.50;;
10469;SDS011;5282;47.052;15.458;2024-03-29T06:31:32;1.40;;;1.30;;
10469;SDS011;5282;47.052;15.458;2024-03-29T06:33:59;1.70;;;1.60;;
10469;SDS011;5282;47.052;15.458;2024-03-29T06:36:27;1.50;;;1.40;;
10469;SDS011;5282;47.052;15.458;2024-03-29T06:38:56;1.20;;;1.20;;
10469;SDS011;5282;47.052;15.458;2024-03-29T06:41:23;1.40;;;1.40;;
10469;SDS011;5282;47.052;15.458;2024-03-29T06:43:50;1.63;;;1.10;;
10469;SDS011;5282;47.052;15.458;2024-03-29T06:46:17;0.93;;;0.93;;
10469;SDS011;5282;47.052;15.458;2024-03-29T06:48:43;1.40;;;1.30;;
10469;SDS011;5282;47.052;15.458;2024-03-29T06:51:10;1.70;;;1.23;;
10469;SDS011;5282;47.052;15.458;2024-03-29T06:53:38;1.33;;;1.33;;
10469;SDS011;5282;47.052;15.458;2024-03-29T06:56:05;1.30;;;1.20;;
10469;SDS011;5282;47.052;15.458;2024-03-29T06:58:33;1.03;;;1.03;;
10469;SDS011;5282;47.052;15.458;2024-03-29T07:01:00;1.47;;;1.37;;
10469;SDS011;5282;47.052;15.458;2024-03-29T07:03:27;1.00;;;1.00;;
10469;SDS011;5282;47.052;15.458;2024-03-29T07:05:54;1.40;;;1.30;;
10469;SDS011;5282;47.052;15.458;2024-03-29T07:08:21;1.20;;;0.90;;
10469;SDS011;5282;47.052;15.458;2024-03-29T07:10:57;1.37;;;1.27;;
10469;SDS011;5282;47.052;15.458;2024-03-29T07:13:25;1.30;;;1.30;;
10469;SDS011;5282;47.052;15.458;2024-03-29T07:15:52;1.80;;;1.40;;
10469;SDS011;5282;47.052;15.458;2024-03-29T07:18:18;1.17;;;1.17;;
10469;SDS011;5282;47.052;15.458;2024-03-29T07:20:46;1.80;;;1.40;;
10469;SDS011;5282;47.052;15.458;2024-03-29T07:23:13;1.23;;;1.17;;
10469;SDS011;5282;47.052;15.458;2024-03-29T07:25:40;1.60;;;1.50;;
10469;SDS011;5282;47.052;15.458;2024-03-29T07:28:11;1.20;;;1.20;;
10469;SDS011;5282;47.052;15.458;2024-03-29T07:30:40;1.47;;;1.47;;
10469;SDS011;5282;47.052;15.458;2024-03-29T07:33:09;1.80;;;1.70;;
10469;SDS011;5282;47.052;15.458;2024-03-29T07:35:40;1.57;;;1.57;;
10469;SDS011;5282;47.052;15.458;2024-03-29T07:38:08;1.60;;;1.60;;
10469;SDS011;5282;47.052;15.458;2024-03-29T07:40:36;2.13;;;1.90;;
10469;SDS011;5282;47.052;15.458;2024-03-29T07:43:03;2.03;;;1.93;;
10469;SDS011;5282;47.052;15.458;2024-03-29T07:45:32;1.73;;;1.63;;
10469;SDS011;5282;47.052;15.458;2024-03-29T07:47:59;4.27;;;1.67;;
10469;SDS011;5282;47.052;15.458;2024-03-29T07:50:26;2.00;;;1.80;;
10469;SDS011;5282;47.052;15.458;2024-03-29T07:52:53;1.63;;;1.53;;
10469;SDS011;5282;47.052;15.458;2024-03-29T07:55:20;1.60;;;1.50;;
10469;SDS011;5282;47.052;15.458;2024-03-29T07:57:46;1.30;;;1.30;;
10469;SDS011;5282;47.052;15.458;2024-03-29T08:00:14;4.30;;;1.70;;
10469;SDS011;5282;47.052;15.458;2024-03-29T08:02:43;2.17;;;1.97;;
10469;SDS011;5282;47.052;15.458;2024-03-29T08:05:11;1.57;;;1.40;;
10469;SDS011;5282;47.052;15.458;2024-03-29T08:07:38;2.20;;;2.10;;
10469;SDS011;5282;47.052;15.458;2024-03-29T08:10:05;1.73;;;1.63;;
10469;SDS011;5282;47.052;15.458;2024-03-29T08:12:33;1.73;;;1.63;;
10469;SDS011;5282;47.052;15.458;2024-03-29T08:15:01;2.00;;;1.90;;
10469;SDS011;5282;47.052;15.458;2024-03-29T08:17:28;1.83;;;1.73;;
10469;SDS011;5282;47.052;15.458;2024-03-29T08:19:56;2.20;;;1.90;;
10469;SDS011;5282;47.052;15.458;2024-03-29T08:22:23;2.60;;;1.80;;
10469;SDS011;5282;47.052;15.458;2024-03-29T08:24:50;3.53;;;1.80;;
10469;SDS011;5282;47.052;15.458;2024-03-29T08:27:17;2.03;;;1.90;;
10469;SDS011;5282;47.052;15.458;2024-03-29T08:29:44;2.17;;;2.07;;
10469;SDS011;5282;47.052;15.458;2024-03-29T08:32:11;3.10;;;2.50;;
10469;SDS011;5282;47.052;15.458;2024-03-29T08:34:38;2.50;;;2.40;;
10469;SDS011;5282;47.052;15.458;2024-03-29T08:37:06;2.30;;;2.10;;
10469;SDS011;5282;47.052;15.458;2024-03-29T08:39:33;2.20;;;2.10;;
10469;SDS011;5282;47.052;15.458;2024-03-29T08:42:05;2.00;;;1.90;;
10469;SDS011;5282;47.052;15.458;2024-03-29T08:44:32;1.90;;;1.80;;
10469;SDS011;5282;47.052;15.458;2024-03-29T08:46:59;2.23;;;2.03;;
10469;SDS011;5282;47.052;15.458;2024-03-29T08:49:28;2.20;;;2.10;;
10469;SDS011;5282;47.052;15.458;2024-03-29T08:51:55;2.33;;;2.23;;
10469;SDS011;5282;47.052;15.458;2024-03-29T08:54:24;2.30;;;2.20;;
10469;SDS011;5282;47.052;15.458;2024-03-29T08:56:51;3.53;;;1.97;;
10469;SDS011;5282;47.052;15.458;2024-03-29T08:59:17;1.53;;;1.53;;
10469;SDS011;5282;47.052;15.458;2024-03-29T09:01:45;1.40;;;1.40;;
10469;SDS011;5282;47.052;15.458;2024-03-29T09:04:14;1.97;;;1.87;;
10469;SDS011;5282;47.052;15.458;2024-03-29T09:06:41;2.00;;;1.73;;
10469;SDS011;5282;47.052;15.458;2024-03-29T09:09:08;1.57;;;1.47;;
10469;SDS011;5282;47.052;15.458;2024-03-29T09:11:37;2.00;;;1.90;;
10469;SDS011;5282;47.052;15.458;2024-03-29T09:14:04;2.00;;;1.90;;
10469;SDS011;5282;47.052;15.458;2024-03-29T09:16:35;1.80;;;1.70;;
10469;SDS011;5282;47.052;15.458;2024-03-29T09:19:02;1.80;;;1.70;;
10469;SDS011;5282;47.052;15.458;2024-03-29T09:21:30;1.93;;;1.83;;
10469;SDS011;5282;47.052;15.458;2024-03-29T09:23:57;2.30;;;1.63;;
10469;SDS011;5282;47.052;15.458;2024-03-29T09:26:25;1.67;;;1.57;;
10469;SDS011;5282;47.052;15.458;2024-03-29T09:28:53;1.83;;;1.73;;
10469;SDS011;5282;47.052;15.458;2024-03-29T09:31:20;1.43;;;1.33;;
10469;SDS011;5282;47.052;15.458;2024-03-29T09:33:47;1.30;;;1.30;;
10469;SDS011;5282;47.052;15.458;2024-03-29T09:36:19;1.60;;;1.60;;
10469;SDS011;5282;47.052;15.458;2024-03-29T09:38:48;1.83;;;1.73;;
10469;SDS011;5282;47.052;15.458;2024-03-29T09:41:15;1.90;;;1.80;;
10469;SDS011;5282;47.052;15.458;2024-03-29T09:43:44;1.40;;;1.33;;
10469;SDS011;5282;47.052;15.458;2024-03-29T09:46:14;1.70;;;1.60;;
10469;SDS011;5282;47.052;15.458;2024-03-29T09:48:42;1.73;;;1.63;;
10469;SDS011;5282;47.052;15.458;2024-03-29T09:51:12;1.83;;;1.73;;
10469;SDS011;5282;47.052;15.458;2024-03-29T09:53:41;3.13;;;1.83;;
10469;SDS011;5282;47.052;15.458;2024-03-29T09:56:09;1.73;;;1.60;;
10469;SDS011;5282;47.052;15.458;2024-03-29T09:58:37;1.83;;;1.43;;
10469;SDS011;5282;47.052;15.458;2024-03-29T10:01:05;1.77;;;1.63;;
10469;SDS011;5282;47.052;15.458;2024-03-29T10:03:36;2.00;;;1.90;;
10469;SDS011;5282;47.052;15.458;2024-03-29T10:06:06;2.70;;;2.17;;
10469;SDS011;5282;47.052;15.458;2024-03-29T10:08:34;4.33;;;1.80;;
10469;SDS011;5282;47.052;15.458;2024-03-29T10:11:02;1.70;;;1.60;;
10469;SDS011;5282;47.052;15.458;2024-03-29T10:13:29;1.70;;;1.60;;
10469;SDS011;5282;47.052;15.458;2024-03-29T10:15:56;1.60;;;1.50;;
10469;SDS011;5282;47.052;15.458;2024-03-29T10:18:24;1.63;;;1.53;;
10469;SDS011;5282;47.052;15.458;2024-03-29T10:21:00;1.63;;;1.43;;
10469;SDS011;5282;47.052;15.458;2024-03-29T10:23:28;1.47;;;1.40;;
10469;SDS011;5282;47.052;15.458;2024-03-29T10:25:56;1.90;;;1.80;;
10469;SDS011;5282;47.052;15.458;2024-03-29T10:28:23;1.83;;;1.73;;
10469;SDS011;5282;47.052;15.458;2024-03-29T10:30:56;1.80;;;1.70;;
10469;SDS011;5282;47.052;15.458;2024-03-29T10:33:23;1.80;;;1.40;;
10469;SDS011;5282;47.052;15.458;2024-03-29T10:35:53;1.70;;;1.60;;
10469;SDS011;5282;47.052;15.458;2024-03-29T10:38:22;3.50;;;1.93;;
10469;SDS011;5282;47.052;15.458;2024-03-29T10:40:51;1.50;;;1.40;;
10469;SDS011;5282;47.052;15.458;2024-03-29T10:43:18;2.10;;;1.60;;
10469;SDS011;5282;47.052;15.458;2024-03-29T10:45:46;1.80;;;1.70;;
10469;SDS011;5282;47.052;15.458;2024-03-29T10:48:15;1.60;;;1.50;;
10469;SDS011;5282;47.052;15.458;2024-03-29T10:50:43;1.77;;;1.67;;
10469;SDS011;5282;47.052;15.458;2024-03-29T10:53:12;2.10;;;1.60;;
10469;SDS011;5282;47.052;15.458;2024-03-29T10:55:43;2.20;;;2.00;;
10469;SDS011;5282;47.052;15.458;2024-03-29T10:58:10;1.73;;;1.60;;
10469;SDS011;5282;47.052;15.458;2024-03-29T11:00:41;2.40;;;2.20;;
10469;SDS011;5282;47.052;15.458;2024-03-29T11:03:13;3.00;;;1.97;;
10469;SDS011;5282;47.052;15.458;2024-03-29T11:05:46;2.37;;;2.00;;
10469;SDS011;5282;47.052;15.458;2024-03-29T11:08:15;2.20;;;1.90;;
10469;SDS011;5282;47.052;15.458;2024-03-29T11:10:53;1.97;;;1.77;;
10469;SDS011;5282;47.052;15.458;2024-03-29T11:13:23;2.30;;;2.13;;
10469;SDS011;5282;47.052;15.458;2024-03-29T11:15:55;1.60;;;1.50;;
10469;SDS011;5282;47.052;15.458;2024-03-29T11:18:25;1.43;;;1.33;;
10469;SDS011;5282;47.052;15.458;2024-03-29T11:20:53;1.40;;;1.30;;
10469;SDS011;5282;47.052;15.458;2024-03-29T11:23:22;1.50;;;1.40;;
10469;SDS011;5282;47.052;15.458;2024-03-29T11:25:53;1.40;;;1.30;;
10469;SDS011;5282;47.052;15.458;2024-03-29T11:28:23;1.83;;;1.60;;
10469;SDS011;5282;47.052;15.458;2024-03-29T11:30:52;2.40;;;1.40;;
10469;SDS011;5282;47.052;15.458;2024-03-29T11:33:31;1.47;;;1.37;;
10469;SDS011;5282;47.052;15.458;2024-03-29T11:36:00;1.90;;;1.30;;
10469;SDS011;5282;47.052;15.458;2024-03-29T11:38:35;1.50;;;1.40;;
10469;SDS011;5282;47.052;15.458;2024-03-29T11:41:07;1.40;;;1.30;;
10469;SDS011;5282;47.052;15.458;2024-03-29T11:43:37;1.93;;;1.37;;
10469;SDS011;5282;47.052;15.458;2024-03-29T11:46:05;1.60;;;1.50;;
10469;SDS011;5282;47.052;15.458;2024-03-29T11:48:34;1.53;;;1.40;;
10469;SDS011;5282;47.052;15.458;2024-03-29T11:51:02;1.43;;;1.33;;
10469;SDS011;5282;47.052;15.458;2024-03-29T11:53:30;3.03;;;1.77;;
10469;SDS011;5282;47.052;15.458;2024-03-29T11:55:57;2.43;;;1.53;;
10469;SDS011;5282;47.052;15.458;2024-03-29T11:58:27;2.00;;;1.67;;
10469;SDS011;5282;47.052;15.458;2024-03-29T12:00:55;2.80;;;1.40;;
10469;SDS011;5282;47.052;15.458;2024-03-29T12:03:23;2.40;;;1.40;;
10469;SDS011;5282;47.052;15.458;2024-03-29T12:05:51;2.00;;;1.50;;
10469;SDS011;5282;47.052;15.458;2024-03-29T12:08:20;1.80;;;1.50;;
10469;SDS011;5282;47.052;15.458;2024-03-29T12:10:50;1.13;;;1.10;;
10469;SDS011;5282;47.052;15.458;2024-03-29T12:13:17;2.70;;;1.00;;
10469;SDS011;5282;47.052;15.458;2024-03-29T12:15:45;1.43;;;1.40;;
10469;SDS011;5282;47.052;15.458;2024-03-29T12:18:12;2.07;;;1.57;;
10469;SDS011;5282;47.052;15.458;2024-03-29T12:20:41;2.43;;;1.93;;
10469;SDS011;5282;47.052;15.458;2024-03-29T12:23:12;1.50;;;1.40;;
10469;SDS011;5282;47.052;15.458;2024-03-29T12:25:40;3.27;;;1.57;;
10469;SDS011;5282;47.052;15.458;2024-03-29T12:28:07;1.93;;;1.40;;
10469;SDS011;5282;47.052;15.458;2024-03-29T12:30:33;2.87;;;1.37;;
10469;SDS011;5282;47.052;15.458;2024-03-29T12:33:03;1.23;;;1.17;;
10469;SDS011;5282;47.052;15.458;2024-03-29T12:35:32;2.03;;;1.30;;
10469;SDS011;5282;47.052;15.458;2024-03-29T12:38:00;2.37;;;1.60;;
10469;SDS011;5282;47.052;15.458;2024-03-29T12:40:29;1.70;;;1.20;;
10469;SDS011;5282;47.052;15.458;2024-03-29T12:43:02;3.17;;;1.30;;
10469;SDS011;5282;47.052;15.458;2024-03-29T12:45:30;1.43;;;1.00;;
10469;SDS011;5282;47.052;15.458;2024-03-29T12:47:57;1.30;;;1.00;;
10469;SDS011;5282;47.052;15.458;2024-03-29T12:50:27;1.77;;;1.17;;
10469;SDS011;5282;47.052;15.458;2024-03-29T12:52:55;5.20;;;1.40;;
10469;SDS011;5282;47.052;15.458;2024-03-29T12:55:24;2.33;;;1.30;;
10469;SDS011;5282;47.052;15.458;2024-03-29T12:57:55;1.97;;;1.40;;
10469;SDS011;5282;47.052;15.458;2024-03-29T13:00:25;1.47;;;1.37;;
10469;SDS011;5282;47.052;15.458;2024-03-29T13:02:52;1.90;;;1.30;;
10469;SDS011;5282;47.052;15.458;2024-03-29T13:05:19;1.40;;;1.20;;
10469;SDS011;5282;47.052;15.458;2024-03-29T13:07:47;1.13;;;1.13;;
10469;SDS011;5282;47.052;15.458;2024-03-29T13:10:14;1.83;;;1.07;;
10469;SDS011;5282;47.052;15.458;2024-03-29T13:12:45;1.40;;;1.30;;
10469;SDS011;5282;47.052;15.458;2024-03-29T13:15:15;2.00;;;1.40;;
10469;SDS011;5282;47.052;15.458;2024-03-29T13:17:44;1.20;;;1.10;;
10469;SDS011;5282;47.052;15.458;2024-03-29T13:20:12;1.20;;;1.20;;
10469;SDS011;5282;47.052;15.458;2024-03-29T13:22:43;2.30;;;1.20;;
10469;SDS011;5282;47.052;15.458;2024-03-29T13:25:12;1.13;;;1.00;;
10469;SDS011;5282;47.052;15.458;2024-03-29T13:27:40;1.30;;;1.20;;
10469;SDS011;5282;47.052;15.458;2024-03-29T13:30:08;1.30;;;1.20;;
10469;SDS011;5282;47.052;15.458;2024-03-29T13:32:38;1.90;;;1.07;;
10469;SDS011;5282;47.052;15.458;2024-03-29T13:35:06;1.27;;;1.17;;
10469;SDS011;5282;47.052;15.458;2024-03-29T13:37:37;1.87;;;1.20;;
10469;SDS011;5282;47.052;15.458;2024-03-29T13:40:04;1.50;;;1.40;;
10469;SDS011;5282;47.052;15.458;2024-03-29T13:42:34;1.30;;;1.20;;
10469;SDS011;5282;47.052;15.458;2024-03-29T13:45:01;1.77;;;1.20;;
10469;SDS011;5282;47.052;15.458;2024-03-29T13:47:29;1.27;;;1.03;;
10469;SDS011;5282;47.052;15.458;2024-03-29T13:49:56;1.50;;;1.27;;
10469;SDS011;5282;47.052;15.458;2024-03-29T13:52:23;1.30;;;1.20;;
10469;SDS011;5282;47.052;15.458;2024-03-29T13:54:50;1.50;;;1.10;;
10469;SDS011;5282;47.052;15.458;2024-03-29T13:57:17;1.47;;;1.00;;
10469;SDS011;5282;47.052;15.458;2024-03-29T13:59:45;1.60;;;1.27;;
10469;SDS011;5282;47.052;15.458;2024-03-29T14:02:13;2.30;;;1.37;;
10469;SDS011;5282;47.052;15.458;2024-03-29T14:04:40;1.07;;;0.97;;
10469;SDS011;5282;47.052;15.458;2024-03-29T14:07:07;1.10;;;0.90;;
10469;SDS011;5282;47.052;15.458;2024-03-29T14:09:36;1.30;;;1.20;;
10469;SDS011;5282;47.052;15.458;2024-03-29T14:12:04;1.30;;;1.10;;
10469;SDS011;5282;47.052;15.458;2024-03-29T14:14:32;1.53;;;1.20;;
10469;SDS011;5282;47.052;15.458;2024-03-29T14:17:00;1.37;;;1.03;;
10469;SDS011;5282;47.052;15.458;2024-03-29T14:19:32;1.93;;;1.17;;
10469;SDS011;5282;47.052;15.458;2024-03-29T14:21:59;1.23;;;1.23;;
10469;SDS011;5282;47.052;15.458;2024-03-29T14:24:26;1.30;;;1.27;;
10469;SDS011;5282;47.052;15.458;2024-03-29T14:26:55;2.20;;;1.30;;
10469;SDS011;5282;47.052;15.458;2024-03-29T14:29:22;1.00;;;0.93;;
10469;SDS011;5282;47.052;15.458;2024-03-29T14:31:50;1.90;;;1.20;;
10469;SDS011;5282;47.052;15.458;2024-03-29T14:34:21;2.87;;;1.40;;
10469;SDS011;5282;47.052;15.458;2024-03-29T14:36:48;1.20;;;1.10;;
10469;SDS011;5282;47.052;15.458;2024-03-29T14:39:15;1.33;;;1.00;;
10469;SDS011;5282;47.052;15.458;2024-03-29T14:41:43;0.93;;;0.93;;
10469;SDS011;5282;47.052;15.458;2024-03-29T14:44:11;2.77;;;1.20;;
10469;SDS011;5282;47.052;15.458;2024-03-29T14:46:39;1.20;;;1.10;;
10469;SDS011;5282;47.052;15.458;2024-03-29T14:49:06;1.50;;;1.00;;
10469;SDS011;5282;47.052;15.458;2024-03-29T14:51:37;1.57;;;1.10;;
10469;SDS011;5282;47.052;15.458;2024-03-29T14:54:05;1.50;;;1.40;;